Time;durP1;ratioP1;P1;durP2;ratioP2;P2;SDS_P1;SDS_P2;PMS_P1;PMS_P2;Temp;Humidity;BMP_temperature;BMP_pressure;BME280_temperature;BME280_humidity;BME280_pressure;Samples;Min_cycle;Max_cycle;Signal;HPM_P1;HPM_P2
2021/09/18 00:01:32;;;;;;;11.90;7.60;;;;;;;19.93;74.91;97532.75;112452;1190;74273;-22
2021/09/18 00:04:00;;;;;;;13.50;7.10;;;;;;;19.84;74.73;97535.23;112307;1192;75456;-21
2021/09/18 00:06:29;;;;;;;19.20;8.80;;;;;;;19.56;75.28;97528.40;112523;1190;73018;-22
2021/09/18 00:09:13;;;;;;;10.50;7.50;;;;;;;19.20;76.09;97525.08;112356;1192;61247;-21
2021/09/18 00:12:01;;;;;;;12.80;6.20;;;;;;;18.89;77.42;97523.88;112473;1190;62950;-22
2021/09/18 00:14:29;;;;;;;10.20;6.50;;;;;;;19.38;76.81;97521.86;112445;1191;74932;-21
2021/09/18 00:16:58;;;;;;;14.50;8.50;;;;;;;19.80;75.49;97522.61;112457;1187;74746;-22
2021/09/18 00:19:28;;;;;;;19.80;9.20;;;;;;;19.74;75.08;97520.48;112480;1190;74010;-22
2021/09/18 00:22:00;;;;;;;24.40;10.00;;;;;;;19.45;75.45;97522.75;112495;1192;60775;-22
2021/09/18 00:24:48;;;;;;;21.20;9.30;;;;;;;19.11;76.15;97521.75;112456;1192;63099;-21
2021/09/18 00:27:17;;;;;;;17.90;7.70;;;;;;;18.86;76.88;97517.29;112471;1192;75269;-21
2021/09/18 00:29:45;;;;;;;19.20;10.60;;;;;;;19.23;76.89;97516.19;112397;1191;75476;-22
2021/09/18 00:32:13;;;;;;;13.60;9.10;;;;;;;19.65;75.53;97514.97;112364;1193;73126;-22
2021/09/18 00:34:56;;;;;;;11.80;8.30;;;;;;;19.61;75.11;97522.55;112394;1190;60911;-22
2021/09/18 00:37:24;;;;;;;10.20;6.60;;;;;;;19.36;75.50;97519.85;112482;1190;60864;-22
2021/09/18 00:39:54;;;;;;;11.40;7.20;;;;;;;19.04;76.32;97522.18;112509;1190;75003;-22
2021/09/18 00:42:42;;;;;;;8.10;5.60;;;;;;;18.80;77.29;97521.31;112433;1190;74816;-22
2021/09/18 00:45:10;;;;;;;11.90;7.00;;;;;;;19.33;76.73;97517.48;112442;1190;74068;-22
2021/09/18 00:47:58;;;;;;;14.30;8.80;;;;;;;19.82;74.96;97512.79;112439;1190;62386;-21
2021/09/18 00:50:46;;;;;;;14.30;7.70;;;;;;;19.71;74.86;97511.95;112444;1192;62636;-22
2021/09/18 00:53:14;;;;;;;9.90;8.10;;;;;;;19.44;75.33;97511.73;112197;1192;75234;-21
2021/09/18 00:55:42;;;;;;;13.00;7.80;;;;;;;19.13;75.92;97509.57;112400;1191;75397;-22
2021/09/18 00:58:11;;;;;;;9.90;6.90;;;;;;;18.87;77.04;97512.46;112427;1190;74169;-22
2021/09/18 01:00:39;;;;;;;12.80;7.80;;;;;;;19.27;76.79;97510.04;112518;1190;61256;-22
2021/09/18 01:03:27;;;;;;;11.70;6.40;;;;;;;19.78;74.86;97506.34;112438;1184;62776;-22
2021/09/18 01:05:57;;;;;;;12.10;7.50;;;;;;;19.72;74.81;97506.00;112503;1191;75030;-22
2021/09/18 01:08:27;;;;;;;13.00;7.60;;;;;;;19.47;75.12;97506.37;112297;1190;74833;-22
2021/09/18 01:11:15;;;;;;;12.20;7.50;;;;;;;19.16;75.76;97507.39;112388;1192;74340;-22
2021/09/18 01:13:43;;;;;;;9.40;5.80;;;;;;;18.93;76.43;97506.26;112441;1190;62391;-22
2021/09/18 01:16:31;;;;;;;8.80;6.30;;;;;;;19.43;75.93;97503.58;112373;1190;61643;-22
2021/09/18 01:19:02;;;;;;;8.60;5.90;;;;;;;19.84;74.70;97498.55;112529;1190;75301;-22
2021/09/18 01:21:31;;;;;;;10.70;6.60;;;;;;;19.77;74.44;97494.90;112547;1190;75497;-22
2021/09/18 01:24:00;;;;;;;11.20;6.70;;;;;;;19.49;75.06;97491.20;112394;1190;73140;-22
2021/09/18 01:26:33;;;;;;;13.10;8.20;;;;;;;19.19;75.42;97486.73;112509;1190;60805;-22
2021/09/18 01:29:02;;;;;;;10.20;6.20;;;;;;;18.92;76.54;97488.52;112202;1194;61670;-22
2021/09/18 01:31:51;;;;;;;10.30;7.00;;;;;;;19.44;76.31;97484.60;112241;1190;76546;-22
2021/09/18 01:34:23;;;;;;;12.40;6.50;;;;;;;19.86;74.93;97484.27;112431;1192;76003;-22
2021/09/18 01:36:52;;;;;;;11.20;6.60;;;;;;;19.81;74.61;97486.73;112262;1190;74291;-22
2021/09/18 01:39:21;;;;;;;10.30;6.70;;;;;;;19.56;75.02;97487.21;112251;1193;61217;-23
2021/09/18 01:41:49;;;;;;;11.20;6.70;;;;;;;19.27;75.51;97485.55;112420;1193;61719;-22
2021/09/18 01:44:18;;;;;;;8.80;5.70;;;;;;;19.03;76.38;97483.44;112369;1193;73893;-22
2021/09/18 01:46:47;;;;;;;12.90;6.30;;;;;;;19.43;76.26;97482.95;112391;1192;75434;-22
2021/09/18 01:49:18;;;;;;;9.20;5.80;;;;;;;19.87;74.78;97479.09;112478;1191;72497;-22
2021/09/18 01:51:59;;;;;;;13.00;6.70;;;;;;;19.84;74.56;97476.05;112505;1190;60832;-22
2021/09/18 01:54:28;;;;;;;11.10;6.80;;;;;;;19.53;74.92;97473.36;112467;1190;62128;-22
2021/09/18 01:56:56;;;;;;;8.90;6.50;;;;;;;19.25;75.81;97470.77;112270;1192;74206;-22
2021/09/18 01:59:25;;;;;;;14.10;6.30;;;;;;;19.01;76.56;97469.30;112430;1190;73504;-22
2021/09/18 02:01:53;;;;;;;15.30;6.40;;;;;;;19.40;76.37;97465.40;112439;1191;73036;-22
2021/09/18 02:04:21;;;;;;;13.80;6.10;;;;;;;19.86;74.94;97464.52;112353;1190;61438;-22
2021/09/18 02:06:50;;;;;;;10.00;6.20;;;;;;;19.82;74.68;97468.76;112481;1190;60897;-22
2021/09/18 02:09:18;;;;;;;9.60;6.50;;;;;;;19.59;75.22;97467.70;112508;1190;75235;-22
2021/09/18 02:11:47;;;;;;;10.80;6.90;;;;;;;19.31;75.64;97464.81;112494;1190;75544;-22
2021/09/18 02:14:15;;;;;;;14.60;6.20;;;;;;;19.02;76.69;97457.04;112536;1190;74131;-22
2021/09/18 02:16:46;;;;;;;14.20;5.80;;;;;;;19.39;76.61;97455.17;112463;1180;61539;-23
2021/09/18 02:19:18;;;;;;;11.10;6.20;;;;;;;19.81;75.08;97453.56;112484;1190;60807;-22
2021/09/18 02:21:50;;;;;;;11.70;6.70;;;;;;;19.74;74.91;97450.04;112526;1190;75027;-22
2021/09/18 02:24:28;;;;;;;10.60;6.50;;;;;;;19.43;75.57;97447.77;112518;1190;75550;-22
2021/09/18 02:26:58;;;;;;;18.00;7.90;;;;;;;19.11;76.27;97446.52;112468;1190;74746;-22
2021/09/18 02:29:27;;;;;;;9.40;5.40;;;;;;;18.83;77.11;97438.58;112482;1190;63081;-22
2021/09/18 02:31:56;;;;;;;11.40;5.60;;;;;;;19.26;76.82;97439.53;112530;1190;60777;-22
2021/09/18 02:34:44;;;;;;;9.70;5.90;;;;;;;19.69;75.37;97442.95;112446;1190;75559;-22
2021/09/18 02:37:12;;;;;;;14.30;7.00;;;;;;;19.57;75.32;97440.42;112478;1190;74810;-22
2021/09/18 02:39:41;;;;;;;11.40;7.50;;;;;;;19.28;76.03;97434.28;112426;1190;71866;-23
2021/09/18 02:42:09;;;;;;;12.20;7.50;;;;;;;18.98;76.68;97430.16;112453;1190;60854;-22
2021/09/18 02:44:37;;;;;;;12.00;5.70;;;;;;;18.69;77.91;97428.12;112417;1190;60787;-22
2021/09/18 02:47:05;;;;;;;12.10;5.80;;;;;;;19.17;77.43;97427.16;112521;1190;75092;-23
2021/09/18 02:49:36;;;;;;;13.00;7.30;;;;;;;19.59;75.94;97424.92;112516;1190;74600;-23
2021/09/18 02:52:04;;;;;;;12.10;7.00;;;;;;;19.51;75.80;97423.77;112440;1190;73737;-23
2021/09/18 02:54:33;;;;;;;11.50;6.80;;;;;;;19.17;76.52;97422.70;112453;1190;61397;-23
2021/09/18 02:57:03;;;;;;;12.10;6.60;;;;;;;18.79;77.79;97422.80;112476;1190;61365;-23
2021/09/18 02:59:52;;;;;;;13.30;6.20;;;;;;;18.66;78.69;97422.76;112437;1190;76302;-23
2021/09/18 03:02:21;;;;;;;10.10;6.40;;;;;;;19.05;77.79;97426.56;112502;1190;75522;-23
2021/09/18 03:04:50;;;;;;;13.80;6.80;;;;;;;19.03;77.80;97426.91;112495;1190;71877;-23
2021/09/18 03:07:19;;;;;;;11.90;7.30;;;;;;;18.70;78.81;97425.35;112505;1190;60819;-23
2021/09/18 03:09:47;;;;;;;12.30;6.30;;;;;;;18.49;79.53;97427.41;112494;1190;60834;-23
2021/09/18 03:12:15;;;;;;;12.10;5.70;;;;;;;18.73;79.23;97421.92;112546;1190;74363;-23
2021/09/18 03:14:44;;;;;;;13.40;6.60;;;;;;;18.89;78.57;97422.71;112462;1192;76223;-23
2021/09/18 03:17:12;;;;;;;5.50;3.40;;;;;;;18.77;78.70;97429.95;112397;1192;73467;-24
2021/09/18 03:19:41;;;;;;;1.90;0.90;;;;;;;17.42;73.53;97432.73;112521;1190;61733;-24
2021/09/18 03:22:29;;;;;;;0.40;0.30;;;;;;;15.92;74.50;97446.89;112356;1190;62749;-23
2021/09/18 03:25:10;;;;;;;0.20;0.20;;;;;;;14.83;77.49;97459.32;112488;1190;75393;-23
2021/09/18 03:27:40;;;;;;;0.60;0.20;;;;;;;14.38;79.17;97462.36;112467;1190;75688;-23
2021/09/18 03:30:08;;;;;;;2.00;0.30;;;;;;;14.48;79.25;97461.40;112488;1190;72743;-23
2021/09/18 03:33:10;;;;;;;0.60;0.30;;;;;;;14.34;79.45;97468.48;110473;1209;600546;-22
2021/09/18 03:35:38;;;;;;;0.60;0.30;;;;;;;13.96;80.95;97473.32;111940;1196;60792;-22
2021/09/18 03:38:07;;;;;;;2.00;0.30;;;;;;;13.59;81.65;97470.55;111889;1196;60774;-22
2021/09/18 03:40:35;;;;;;;0.30;0.20;;;;;;;13.70;81.20;97478.15;111675;1197;72704;-22
2021/09/18 03:43:04;;;;;;;0.10;0.10;;;;;;;13.66;80.88;97482.85;111872;1197;75624;-22
2021/09/18 03:45:32;;;;;;;0.10;0.10;;;;;;;13.31;81.43;97477.17;111918;1196;73005;-22
2021/09/18 03:48:16;;;;;;;0.10;0.10;;;;;;;12.82;82.47;97481.19;112485;1192;60843;-21
2021/09/18 03:50:44;;;;;;;0.10;0.10;;;;;;;12.78;81.94;97488.00;112464;1192;61698;-21
2021/09/18 03:53:13;;;;;;;0.10;0.10;;;;;;;12.97;80.59;97490.83;112478;1192;72538;-22
2021/09/18 03:55:41;;;;;;;0.30;0.10;;;;;;;12.83;80.57;97483.93;112502;1192;74479;-21
2021/09/18 03:58:10;;;;;;;0.20;0.10;;;;;;;12.38;81.91;97494.04;112399;1192;73746;-21
2021/09/18 04:00:38;;;;;;;0.10;0.10;;;;;;;12.34;82.10;97497.01;112424;1192;63514;-21
2021/09/18 04:03:08;;;;;;;0.50;0.10;;;;;;;12.52;80.49;97498.15;112392;1184;61688;-21
2021/09/18 04:05:38;;;;;;;0.10;0.10;;;;;;;12.31;80.93;97498.40;112492;1192;74471;-21
2021/09/18 04:08:07;;;;;;;0.10;0.10;;;;;;;12.03;81.67;97514.30;112455;1193;75605;-21
2021/09/18 04:10:39;;;;;;;0.10;0.10;;;;;;;11.87;82.49;97520.55;112089;1193;72867;-21
2021/09/18 04:13:22;;;;;;;0.10;0.10;;;;;;;12.06;81.89;97526.35;112461;1193;60915;-21
2021/09/18 04:15:53;;;;;;;0.10;0.10;;;;;;;12.25;81.42;97537.98;112484;1193;61263;-21
2021/09/18 04:18:40;;;;;;;1.40;0.20;;;;;;;11.95;82.29;97527.77;112494;1192;74441;-20
2021/09/18 04:21:08;;;;;;;0.10;0.10;;;;;;;11.66;84.12;97533.33;112463;1193;75596;-20
2021/09/18 04:23:44;;;;;;;0.10;0.10;;;;;;;11.98;83.19;97539.06;112429;1193;73891;-19
2021/09/18 04:26:14;;;;;;;0.90;0.30;;;;;;;12.19;82.19;97544.60;112434;1193;60892;-20
2021/09/18 04:29:02;;;;;;;0.50;0.10;;;;;;;11.97;83.13;97547.53;112392;1191;63058;-20
2021/09/18 04:31:30;;;;;;;0.10;0.10;;;;;;;11.72;84.09;97548.48;112211;1193;73420;-17
2021/09/18 04:33:59;;;;;;;1.00;0.20;;;;;;;11.93;83.76;97550.53;112449;1192;75391;-22
2021/09/18 04:36:27;;;;;;;0.50;0.20;;;;;;;12.19;82.39;97558.20;112391;1193;74058;-22
2021/09/18 04:38:57;;;;;;;1.00;0.40;;;;;;;12.15;82.33;97561.52;112343;1193;60831;-22
2021/09/18 04:41:26;;;;;;;0.60;0.60;;;;;;;11.76;82.90;97550.73;112382;1192;60833;-23
2021/09/18 04:43:56;;;;;;;1.10;0.30;;;;;;;11.62;83.31;97562.77;112227;1193;74053;-24
2021/09/18 04:46:26;;;;;;;0.30;0.20;;;;;;;12.02;81.69;97567.84;112410;1192;75488;-21
2021/09/18 04:48:58;;;;;;;1.20;0.30;;;;;;;12.05;81.13;97574.27;112121;1193;73228;-21
2021/09/18 04:51:27;;;;;;;1.10;0.20;;;;;;;11.71;81.60;97579.55;112373;1192;60851;-24
2021/09/18 04:53:55;;;;;;;0.30;0.20;;;;;;;11.29;83.38;97583.08;112330;1192;60834;-23
2021/09/18 04:56:23;;;;;;;3.10;0.20;;;;;;;11.27;83.46;97579.73;112367;1193;74382;-23
2021/09/18 04:58:52;;;;;;;0.30;0.20;;;;;;;11.59;81.96;97586.98;112144;1193;75569;-25
2021/09/18 05:01:20;;;;;;;0.30;0.30;;;;;;;11.59;81.93;97590.80;112366;1193;74076;-24
2021/09/18 05:03:49;;;;;;;1.50;0.50;;;;;;;11.30;83.62;97599.60;112189;1193;60776;-24
2021/09/18 05:06:18;;;;;;;0.40;0.30;;;;;;;11.19;84.34;97603.69;112321;1192;60904;-24
2021/09/18 05:08:46;;;;;;;1.70;0.50;;;;;;;11.49;82.94;97603.60;112358;1192;74418;-24
2021/09/18 05:11:34;;;;;;;1.20;0.70;;;;;;;11.50;81.89;97605.16;112299;1193;76698;-23
2021/09/18 05:14:03;;;;;;;1.60;0.50;;;;;;;11.24;82.45;97601.95;112203;1193;72568;-21
2021/09/18 05:16:43;;;;;;;1.60;0.50;;;;;;;11.00;83.66;97615.98;112082;1193;60837;-21
2021/09/18 05:19:11;;;;;;;3.40;0.40;;;;;;;11.14;82.72;97619.91;112448;1193;60866;-21
2021/09/18 05:21:40;;;;;;;2.50;0.70;;;;;;;11.35;81.67;97619.36;112422;1193;74475;-21
2021/09/18 05:24:11;;;;;;;1.20;0.50;;;;;;;11.22;81.57;97623.36;112169;1193;72928;-22
2021/09/18 05:26:59;;;;;;;0.30;0.30;;;;;;;11.15;82.49;97635.92;112331;1193;75130;-23
2021/09/18 05:29:27;;;;;;;0.70;0.40;;;;;;;11.06;82.92;97634.99;112385;1192;62117;-21
2021/09/18 05:31:55;;;;;;;3.30;0.50;;;;;;;11.29;81.82;97637.64;112348;1177;60811;-21
2021/09/18 05:34:24;;;;;;;1.50;0.70;;;;;;;11.55;80.83;97634.61;112343;1193;74331;-22
2021/09/18 05:36:52;;;;;;;0.60;0.20;;;;;;;11.57;80.85;97642.77;112371;1192;75595;-22
2021/09/18 05:39:21;;;;;;;1.30;0.80;;;;;;;11.38;81.61;97642.13;112508;1190;73980;-22
2021/09/18 05:41:50;;;;;;;1.00;0.40;;;;;;;11.21;82.25;97651.86;112467;1190;63642;-22
2021/09/18 05:44:18;;;;;;;1.00;0.60;;;;;;;11.51;81.80;97652.67;112463;1192;61030;-22
2021/09/18 05:46:47;;;;;;;1.10;0.50;;;;;;;11.58;80.19;97646.84;112504;1190;74410;-22
2021/09/18 05:49:15;;;;;;;1.10;0.50;;;;;;;11.38;80.96;97653.50;112541;1190;75623;-23
2021/09/18 05:51:44;;;;;;;1.20;0.60;;;;;;;11.23;81.59;97654.58;112567;1190;73162;-22
2021/09/18 05:54:13;;;;;;;1.40;0.60;;;;;;;11.15;81.99;97657.45;112512;1190;62805;-22
2021/09/18 05:56:41;;;;;;;0.90;0.50;;;;;;;11.44;80.88;97662.03;112527;1190;61257;-24
2021/09/18 05:59:09;;;;;;;1.50;0.80;;;;;;;11.56;80.30;97655.40;112470;1190;74259;-24
2021/09/18 06:01:58;;;;;;;1.60;0.90;;;;;;;11.21;81.31;97661.84;112502;1190;76775;-24
2021/09/18 06:04:27;;;;;;;1.50;0.60;;;;;;;10.89;82.77;97658.65;112501;1190;74067;-24
2021/09/18 06:06:56;;;;;;;1.30;0.60;;;;;;;10.81;83.17;97661.30;112510;1190;61032;-24
2021/09/18 06:09:25;;;;;;;2.30;0.60;;;;;;;11.13;81.70;97663.41;112555;1190;60790;-24
2021/09/18 06:11:53;;;;;;;0.50;0.30;;;;;;;11.23;80.84;97667.23;112548;1190;73187;-24
2021/09/18 06:14:41;;;;;;;2.20;0.60;;;;;;;11.04;81.02;97661.71;112473;1190;77143;-24
2021/09/18 06:17:10;;;;;;;0.70;0.30;;;;;;;10.86;81.26;97661.83;112457;1193;72803;-23
2021/09/18 06:19:53;;;;;;;2.50;0.50;;;;;;;11.19;80.04;97666.98;112466;1190;60812;-24
2021/09/18 06:22:21;;;;;;;1.10;0.50;;;;;;;11.17;80.00;97674.41;112477;1190;61006;-24
2021/09/18 06:25:12;;;;;;;1.30;0.50;;;;;;;11.04;80.84;97678.75;112485;1190;74525;-24
2021/09/18 06:27:40;;;;;;;1.10;0.60;;;;;;;10.66;81.89;97673.30;112504;1190;74662;-24
2021/09/18 06:30:09;;;;;;;2.00;0.50;;;;;;;10.80;82.05;97680.56;112457;1190;72815;-24
2021/09/18 06:32:38;;;;;;;1.70;0.70;;;;;;;10.87;81.27;97673.23;112386;1190;60941;-24
2021/09/18 06:35:07;;;;;;;2.00;0.90;;;;;;;10.91;81.34;97685.66;112498;1190;60786;-24
2021/09/18 06:37:43;;;;;;;4.30;0.60;;;;;;;10.74;81.56;97682.73;112399;1191;74409;-24
2021/09/18 06:40:16;;;;;;;1.40;0.50;;;;;;;10.70;82.46;97676.03;112408;1193;74450;-23
2021/09/18 06:42:44;;;;;;;2.00;1.00;;;;;;;10.87;81.90;97692.10;112439;1190;73455;-23
2021/09/18 06:45:14;;;;;;;1.20;0.60;;;;;;;11.12;81.33;97699.65;112510;1190;61437;-23
2021/09/18 06:47:42;;;;;;;1.80;0.70;;;;;;;11.07;81.85;97705.42;112509;1193;60838;-24
2021/09/18 06:50:11;;;;;;;1.70;0.40;;;;;;;10.89;82.68;97698.95;112437;1192;74472;-23
2021/09/18 06:52:39;;;;;;;1.10;0.30;;;;;;;10.97;83.09;97707.48;112538;1190;75636;-23
2021/09/18 06:55:08;;;;;;;4.00;0.70;;;;;;;11.36;81.14;97707.71;112534;1190;74028;-23
2021/09/18 06:57:38;;;;;;;0.60;0.30;;;;;;;11.21;81.16;97696.60;112474;1191;60981;-23
2021/09/18 07:00:07;;;;;;;1.30;0.60;;;;;;;10.97;82.05;97696.30;112509;1190;60817;-23
2021/09/18 07:02:35;;;;;;;2.00;0.50;;;;;;;10.82;82.90;97702.41;112507;1192;73591;-23
2021/09/18 07:05:14;;;;;;;6.10;0.40;;;;;;;11.13;81.46;97704.58;112528;1190;74950;-23
2021/09/18 07:07:42;;;;;;;0.60;0.40;;;;;;;11.21;81.17;97703.27;112508;1190;73821;-23
2021/09/18 07:10:11;;;;;;;2.90;0.50;;;;;;;11.26;80.96;97709.30;112434;1191;60838;-23
2021/09/18 07:12:40;;;;;;;0.70;0.40;;;;;;;10.99;82.61;97711.10;112456;1192;60822;-24
2021/09/18 07:15:09;;;;;;;1.30;0.50;;;;;;;11.07;82.65;97716.26;112497;1190;74194;-23
2021/09/18 07:17:39;;;;;;;1.50;0.40;;;;;;;11.43;80.60;97718.59;112479;1191;74816;-23
2021/09/18 07:20:09;;;;;;;1.20;0.50;;;;;;;11.42;80.83;97713.02;112525;1190;73376;-23
2021/09/18 07:22:37;;;;;;;1.50;0.40;;;;;;;11.19;80.93;97716.13;112398;1190;61485;-23
2021/09/18 07:25:07;;;;;;;0.30;0.30;;;;;;;10.94;80.74;97715.42;112447;1192;60792;-23
2021/09/18 07:27:35;;;;;;;0.30;0.30;;;;;;;11.13;80.60;97720.92;112503;1193;73597;-23
2021/09/18 07:30:05;;;;;;;0.30;0.30;;;;;;;11.35;79.36;97725.86;112560;1190;74747;-23
2021/09/18 07:32:33;;;;;;;0.20;0.20;;;;;;;11.31;79.66;97725.98;112391;1193;74091;-23
2021/09/18 07:35:05;;;;;;;0.30;0.30;;;;;;;11.15;80.61;97731.52;112514;1191;60984;-23
2021/09/18 07:37:35;;;;;;;0.40;0.40;;;;;;;11.13;81.15;97732.38;112487;1193;61661;-24
2021/09/18 07:40:09;;;;;;;1.00;0.40;;;;;;;11.47;78.96;97729.02;112555;1190;74088;-23
2021/09/18 07:42:37;;;;;;;;;;;;;;;11.44;78.65;97734.30;112522;1190;73067;-23
2021/09/18 07:45:06;;;;;;;0.70;0.50;;;;;;;11.26;79.17;97740.41;112475;1193;73940;-23
2021/09/18 07:47:35;;;;;;;0.50;0.50;;;;;;;11.06;80.24;97745.56;112426;1192;61739;-23
2021/09/18 07:50:06;;;;;;;0.30;0.20;;;;;;;10.79;81.74;97748.30;112536;1190;60937;-23
2021/09/18 07:52:34;;;;;;;0.50;0.50;;;;;;;11.29;80.18;97753.44;112428;1191;75076;-23
2021/09/18 07:55:03;;;;;;;0.40;0.40;;;;;;;11.37;79.55;97756.29;112463;1191;74793;-23
2021/09/18 07:57:52;;;;;;;2.90;0.60;;;;;;;11.31;79.72;97751.88;112472;1190;73962;-23
2021/09/18 08:00:24;;;;;;;1.00;0.20;;;;;;;10.94;81.73;97756.38;112504;1190;61501;-23
2021/09/18 08:02:52;;;;;;;0.40;0.40;;;;;;;11.14;81.19;97762.45;112467;1190;60792;-23
2021/09/18 08:05:22;;;;;;;0.40;0.40;;;;;;;11.61;79.85;97771.60;112566;1190;74186;-22
2021/09/18 08:07:50;;;;;;;0.80;0.40;;;;;;;11.76;78.75;97773.20;112492;1190;75440;-22
2021/09/18 08:10:18;;;;;;;1.20;0.50;;;;;;;11.50;79.60;97768.15;112464;1190;73209;-22
2021/09/18 08:12:48;;;;;;;1.20;0.30;;;;;;;11.40;80.49;97774.94;112478;1190;62316;-22
2021/09/18 08:15:17;;;;;;;1.60;0.60;;;;;;;11.58;80.20;97778.02;112495;1190;60802;-22
2021/09/18 08:17:46;;;;;;;1.40;0.70;;;;;;;11.76;79.57;97781.51;112520;1190;75021;-22
2021/09/18 08:20:16;;;;;;;4.20;0.50;;;;;;;11.83;79.40;97778.61;112538;1190;74762;-22
2021/09/18 08:22:47;;;;;;;1.20;0.80;;;;;;;11.68;79.43;97783.63;112449;1190;73917;-22
2021/09/18 08:25:30;;;;;;;2.10;0.50;;;;;;;11.73;79.90;97785.71;112454;1190;62133;-23
2021/09/18 08:27:58;;;;;;;0.70;0.40;;;;;;;12.18;77.84;97784.55;112551;1190;61126;-22
2021/09/18 08:30:27;;;;;;;1.60;0.70;;;;;;;12.24;78.04;97791.23;112581;1190;72550;-22
2021/09/18 08:32:55;;;;;;;3.50;0.70;;;;;;;11.95;78.99;97794.48;112538;1190;74382;-22
2021/09/18 08:35:25;;;;;;;1.80;0.40;;;;;;;11.82;79.28;97797.33;112455;1190;71323;-22
2021/09/18 08:37:53;;;;;;;2.20;0.80;;;;;;;11.81;79.73;97794.94;112427;1192;62230;-22
2021/09/18 08:40:23;;;;;;;2.10;0.60;;;;;;;11.99;79.45;97803.08;112560;1190;60847;-22
2021/09/18 08:42:52;;;;;;;3.80;0.70;;;;;;;12.01;79.26;97804.46;112429;1190;75315;-22
2021/09/18 08:45:21;;;;;;;0.90;0.50;;;;;;;11.85;79.56;97801.81;112476;1193;73615;-22
2021/09/18 08:47:49;;;;;;;0.30;0.30;;;;;;;11.80;79.72;97802.70;112537;1190;73336;-23
2021/09/18 08:50:20;;;;;;;1.30;0.50;;;;;;;12.07;79.07;97801.79;112532;1191;60790;-23
2021/09/18 08:52:52;;;;;;;3.30;0.70;;;;;;;12.29;78.39;97799.64;112441;1191;60892;-23
2021/09/18 08:55:21;;;;;;;1.30;0.60;;;;;;;12.18;78.26;97796.66;112599;1190;75305;-22
2021/09/18 08:57:49;;;;;;;2.10;0.50;;;;;;;11.98;78.81;97797.65;112549;1190;74693;-23
2021/09/18 09:00:33;;;;;;;0.90;0.50;;;;;;;11.92;79.19;97804.57;112480;1193;73851;-22
2021/09/18 09:03:06;;;;;;;0.90;0.60;;;;;;;12.44;77.39;97795.18;112496;1183;60809;-23
2021/09/18 09:05:38;;;;;;;3.80;0.80;;;;;;;12.56;76.87;97796.69;112401;1192;61449;-23
2021/09/18 09:08:14;;;;;;;2.60;0.70;;;;;;;12.53;76.85;97797.68;112428;1190;75172;-23
2021/09/18 09:10:44;;;;;;;2.10;0.70;;;;;;;12.23;77.74;97801.15;112470;1192;75624;-23
2021/09/18 09:13:19;;;;;;;0.80;0.60;;;;;;;11.90;78.39;97805.61;112395;1193;74039;-23
2021/09/18 09:15:51;;;;;;;1.80;0.50;;;;;;;12.30;77.84;97815.77;112439;1190;61697;-24
2021/09/18 09:18:25;;;;;;;2.20;0.50;;;;;;;12.60;76.18;97810.19;112414;1191;61716;-23
2021/09/18 09:21:07;;;;;;;2.60;0.70;;;;;;;12.55;75.78;97807.56;112345;1190;74316;-23
2021/09/18 09:23:38;;;;;;;0.40;0.30;;;;;;;12.38;76.86;97816.27;112503;1190;75413;-23
2021/09/18 09:26:07;;;;;;;1.00;0.40;;;;;;;12.23;77.08;97817.27;112546;1190;74081;-23
2021/09/18 09:28:38;;;;;;;1.40;0.60;;;;;;;12.26;77.59;97812.63;112481;1192;60993;-23
2021/09/18 09:31:12;;;;;;;1.80;0.60;;;;;;;12.41;77.21;97807.35;112394;1193;61312;-23
2021/09/18 09:34:00;;;;;;;1.30;0.60;;;;;;;12.54;77.22;97810.08;112520;1190;73383;-23
2021/09/18 09:36:30;;;;;;;2.50;0.70;;;;;;;12.49;76.59;97804.56;112253;1190;74708;-23
2021/09/18 09:39:01;;;;;;;1.30;0.60;;;;;;;12.41;77.53;97812.63;112421;1190;72175;-23
2021/09/18 09:41:34;;;;;;;1.20;0.40;;;;;;;12.62;77.77;97817.94;112221;1192;60841;-23
2021/09/18 09:44:07;;;;;;;0.50;0.40;;;;;;;13.10;75.81;97816.42;112473;1193;60847;-22
2021/09/18 09:46:37;;;;;;;1.20;0.80;;;;;;;13.02;75.81;97821.41;112434;1193;75184;-23
2021/09/18 09:49:11;;;;;;;1.50;0.70;;;;;;;12.74;76.21;97820.68;112426;1191;73875;-22
2021/09/18 09:51:42;;;;;;;1.20;0.50;;;;;;;12.47;77.26;97818.25;112385;1190;70978;-23
2021/09/18 09:54:20;;;;;;;2.20;0.60;;;;;;;12.49;77.62;97826.14;112466;1192;60815;-22
2021/09/18 09:57:05;;;;;;;0.60;0.50;;;;;;;12.85;76.06;97823.16;112250;1192;61882;-22
2021/09/18 09:59:34;;;;;;;1.30;0.50;;;;;;;13.21;75.61;97834.16;112418;1192;74103;-22
2021/09/18 10:02:04;;;;;;;0.70;0.50;;;;;;;13.18;75.35;97835.50;112463;1191;74749;-22
2021/09/18 10:04:33;;;;;;;0.50;0.30;;;;;;;13.04;75.93;97835.29;112402;1196;73227;-23
2021/09/18 10:07:03;;;;;;;1.50;0.50;;;;;;;12.93;76.36;97833.73;112449;1193;61745;-22
2021/09/18 10:09:34;;;;;;;0.50;0.50;;;;;;;13.11;75.68;97835.90;112376;1190;61377;-22
2021/09/18 10:12:04;;;;;;;2.90;0.40;;;;;;;13.21;74.58;97831.35;112481;1191;75026;-23
2021/09/18 10:14:32;;;;;;;0.90;0.40;;;;;;;13.27;75.35;97840.27;112295;1193;75694;-23
2021/09/18 10:17:01;;;;;;;0.40;0.40;;;;;;;13.08;75.96;97838.73;112523;1190;73971;-23
2021/09/18 10:25:14;;;;;;;1.30;0.40;;;;;;;13.72;74.91;97839.94;112496;1191;75237;-23
2021/09/18 10:27:57;;;;;;;1.20;0.40;;;;;;;13.89;73.75;97844.23;112266;1191;73155;-22
2021/09/18 10:30:34;;;;;;;1.30;0.40;;;;;;;13.68;74.76;97846.61;112423;1192;72802;-22
2021/09/18 10:33:03;;;;;;;2.40;0.30;;;;;;;13.47;74.57;97843.63;112422;1192;60816;-22
2021/09/18 10:35:32;;;;;;;0.50;0.50;;;;;;;13.27;75.56;97841.46;112484;1191;61436;-22
2021/09/18 10:38:18;;;;;;;0.40;0.30;;;;;;;13.46;75.16;97840.44;112397;1192;75264;-22
2021/09/18 10:41:08;;;;;;;0.40;0.40;;;;;;;13.55;74.17;97842.13;112475;1193;75937;-22
2021/09/18 10:43:41;;;;;;;0.30;0.30;;;;;;;13.49;74.49;97848.10;112500;1190;73745;-22
2021/09/18 10:46:41;;;;;;;0.40;0.40;;;;;;;13.45;75.05;97849.34;112229;1183;61680;-23
2021/09/18 10:49:32;;;;;;;0.70;0.30;;;;;;;13.31;75.23;97846.67;112565;1191;60837;-22
2021/09/18 10:52:17;;;;;;;0.40;0.40;;;;;;;13.68;75.29;97851.07;112515;1193;74376;-24
2021/09/18 10:55:00;;;;;;;0.30;0.30;;;;;;;14.03;73.52;97850.95;112555;1190;75645;-22
2021/09/18 10:57:39;;;;;;;0.40;0.40;;;;;;;13.80;73.66;97843.23;112459;1193;73099;-22
2021/09/18 11:00:14;;;;;;;0.80;0.40;;;;;;;13.80;73.55;97845.54;112408;1192;61362;-22
2021/09/18 11:02:45;;;;;;;0.40;0.40;;;;;;;13.49;74.73;97844.67;112386;1192;60847;-22
2021/09/18 11:05:20;;;;;;;0.30;0.30;;;;;;;13.53;74.89;97849.30;112369;1193;74753;-22
2021/09/18 11:07:55;;;;;;;0.60;0.40;;;;;;;14.12;73.48;97848.89;112426;1191;74692;-23
2021/09/18 11:10:30;;;;;;;0.90;0.40;;;;;;;14.60;72.81;97845.26;112362;1193;73992;-22
2021/09/18 11:13:19;;;;;;;0.30;0.30;;;;;;;14.65;72.51;97850.89;112460;1190;61887;-22
2021/09/18 11:15:58;;;;;;;1.50;0.50;;;;;;;14.53;71.57;97848.35;112399;1191;60796;-22
2021/09/18 11:18:41;;;;;;;0.40;0.40;;;;;;;14.26;73.18;97857.95;112373;1193;75236;-22
2021/09/18 11:21:37;;;;;;;0.30;0.30;;;;;;;14.25;74.04;97861.55;112362;1192;76942;-22
2021/09/18 11:24:14;;;;;;;2.80;0.50;;;;;;;14.74;72.20;97858.29;112390;1192;74288;-22
2021/09/18 11:26:54;;;;;;;0.30;0.30;;;;;;;14.86;71.58;97854.63;112409;1193;60796;-24
2021/09/18 11:29:34;;;;;;;0.30;0.30;;;;;;;14.89;71.54;97857.77;112241;1192;61276;-22
2021/09/18 11:32:04;;;;;;;2.20;0.30;;;;;;;14.76;72.15;97860.89;112484;1192;75768;-22
2021/09/18 11:34:41;;;;;;;0.40;0.40;;;;;;;14.73;71.90;97862.88;112420;1193;75524;-24
2021/09/18 11:37:31;;;;;;;0.30;0.30;;;;;;;14.64;73.02;97863.58;112360;1193;73897;-23
2021/09/18 11:40:08;;;;;;;0.30;0.30;;;;;;;14.59;72.65;97862.19;112371;1193;63111;-23
2021/09/18 11:42:40;;;;;;;1.60;0.40;;;;;;;15.05;70.47;97859.48;112476;1190;60790;-23
2021/09/18 11:45:14;;;;;;;0.30;0.30;;;;;;;14.95;71.12;97862.39;112318;1193;74858;-23
2021/09/18 11:48:03;;;;;;;0.60;0.60;;;;;;;14.69;71.89;97859.27;112391;1193;76800;-23
2021/09/18 11:50:36;;;;;;;0.80;0.40;;;;;;;14.59;73.08;97862.13;112434;1193;72982;-23
2021/09/18 11:53:06;;;;;;;0.70;0.60;;;;;;;14.38;73.25;97864.36;112260;1192;60768;-23
2021/09/18 11:55:34;;;;;;;0.40;0.30;;;;;;;14.32;73.67;97865.41;112405;1193;61418;-22